Gordonville, Texas
Current Conditions -  °F | °C
As of 4:35 PM on Friday 19 Dec 2014 (Local Time) from KGYI Reporting Station
Overcast Overcast  
Wind Chill: 42°   Ceiling: 900
Heat Index: 46°   Visibility: 7mi
Dew Point: 45°   Wind: 7mph
Humidity: 97%   Direction: 350°N
Pressure: 30.19"   Gusts: NA
Location:  33.8°N, 96.85°W
Report Text: KGYI 192235Z AUTO 35006KT 7SM OVC009 08/07 A3019 RMK AO2 T00770072
Loading
Personal Weather Stations






























Interactive Weather Map New forecast layout! Learn more

10-Day Weather Forecast

Advertisements
Track Severe Weather on mobile